DLH340 ENBO-EKCH
Flight info
| Callsign | DLH340 |
|---|---|
| Flight time | 1h 37m |
| Altitude | 34000 |
| Route | DISMU DCT SOMUB/N0451F330 DCT TUMGU DCT TOPLA L996 ERNOV |
| Aircraft | A346/H-SDE2E3FGHIJ3J4J5M1RWXY/LB1D1 |
Departure
| Time | 2026-04-25 17:56 |
|---|---|
| Airport | Bodø Airport (ENBO) |
Arrival
| Time | 2026-04-25 19:33 |
|---|---|
| Airport | Copenhagen Kastrup Airport (EKCH) |
| Time | Latitude | Longitude | Altitude | Speed | Heading |
|---|---|---|---|---|---|
| 2026-04-25 17:42 | 67.27185 | 14.36967 | 62 ft | 0 kts | 291° |
| 2026-04-25 17:46 | 67.27184 | 14.36975 | 62 ft | 1 kts | 291° |
| 2026-04-25 17:46 | 67.27175 | 14.37034 | 62 ft | 5 kts | 291° |
| 2026-04-25 17:47 | 67.27157 | 14.37146 | 63 ft | 6 kts | 300° |
| 2026-04-25 17:47 | 67.27135 | 14.37198 | 64 ft | 3 kts | 351° |
| 2026-04-25 17:47 | 67.27110 | 14.37175 | 65 ft | 3 kts | 44° |
| 2026-04-25 17:47 | 67.27099 | 14.37137 | 65 ft | 2 kts | 76° |
| 2026-04-25 17:48 | 67.27095 | 14.37091 | 65 ft | 0 kts | 77° |
| 2026-04-25 17:51 | 67.27095 | 14.37093 | 65 ft | 1 kts | 77° |
| 2026-04-25 17:51 | 67.27106 | 14.37216 | 65 ft | 13 kts | 77° |
| 2026-04-25 17:51 | 67.27138 | 14.37595 | 67 ft | 27 kts | 77° |
| 2026-04-25 17:52 | 67.27162 | 14.38086 | 69 ft | 24 kts | 90° |
| 2026-04-25 17:52 | 67.27161 | 14.38221 | 69 ft | 19 kts | 97° |
| 2026-04-25 17:52 | 67.27100 | 14.38649 | 68 ft | 16 kts | 81° |
| 2026-04-25 17:52 | 67.27127 | 14.38989 | 68 ft | 21 kts | 77° |
| 2026-04-25 17:53 | 67.27158 | 14.39364 | 70 ft | 19 kts | 78° |
| 2026-04-25 17:53 | 67.27165 | 14.39616 | 73 ft | 9 kts | 110° |
| 2026-04-25 17:53 | 67.27163 | 14.39681 | 73 ft | 1 kts | 55° |
| 2026-04-25 17:53 | 67.27174 | 14.39683 | 73 ft | 1 kts | 333° |
| 2026-04-25 17:54 | 67.27181 | 14.39632 | 73 ft | 2 kts | 271° |
| 2026-04-25 17:54 | 67.27177 | 14.39577 | 73 ft | 0 kts | 257° |
| 2026-04-25 17:55 | 67.27177 | 14.39570 | 73 ft | 1 kts | 257° |
| 2026-04-25 17:55 | 67.27174 | 14.39543 | 73 ft | 7 kts | 257° |
| 2026-04-25 17:55 | 67.27116 | 14.38861 | 68 ft | 80 kts | 257° |
| 2026-04-25 17:55 | 67.26943 | 14.36791 | 69 ft | 150 kts | 257° |
| 2026-04-25 17:56 | 67.26691 | 14.33853 | 455 ft | 175 kts | 261° |
| 2026-04-25 17:56 | 67.26484 | 14.30788 | 1174 ft | 177 kts | 265° |
| 2026-04-25 17:56 | 67.26286 | 14.27665 | 1976 ft | 182 kts | 266° |
| 2026-04-25 17:56 | 67.25796 | 14.24493 | 2558 ft | 209 kts | 233° |
| 2026-04-25 17:57 | 67.24626 | 14.21996 | 3137 ft | 230 kts | 220° |
| 2026-04-25 17:57 | 67.23267 | 14.19472 | 3690 ft | 252 kts | 219° |
| 2026-04-25 17:57 | 67.21800 | 14.16735 | 4334 ft | 271 kts | 220° |
| 2026-04-25 17:57 | 67.21297 | 14.15780 | 4591 ft | 276 kts | 220° |
| 2026-04-25 17:58 | 67.18727 | 14.10812 | 6248 ft | 285 kts | 221° |
| 2026-04-25 17:58 | 67.17153 | 14.07717 | 7297 ft | 288 kts | 222° |
| 2026-04-25 17:58 | 67.15568 | 14.04582 | 8323 ft | 292 kts | 222° |
| 2026-04-25 17:58 | 67.13967 | 14.01421 | 9305 ft | 296 kts | 222° |
| 2026-04-25 17:59 | 67.12325 | 13.98200 | 10244 ft | 302 kts | 219° |
| 2026-04-25 17:59 | 67.10497 | 13.95425 | 10946 ft | 319 kts | 208° |
| 2026-04-25 17:59 | 67.08365 | 13.93438 | 11483 ft | 340 kts | 198° |
| 2026-04-25 17:59 | 67.06042 | 13.91818 | 11991 ft | 359 kts | 197° |
| 2026-04-25 18:00 | 67.03565 | 13.90183 | 12494 ft | 377 kts | 196° |
| 2026-04-25 18:00 | 67.01002 | 13.88482 | 13296 ft | 386 kts | 196° |
| 2026-04-25 18:00 | 66.98394 | 13.86724 | 14315 ft | 388 kts | 197° |
| 2026-04-25 18:00 | 66.95795 | 13.84947 | 15234 ft | 392 kts | 197° |
| 2026-04-25 18:01 | 66.93166 | 13.83134 | 16044 ft | 399 kts | 197° |
| 2026-04-25 18:01 | 66.90512 | 13.81173 | 16823 ft | 405 kts | 200° |
| 2026-04-25 18:01 | 66.87867 | 13.78735 | 17607 ft | 409 kts | 205° |
| 2026-04-25 18:01 | 66.85216 | 13.75956 | 18366 ft | 415 kts | 206° |
| 2026-04-25 18:02 | 66.82564 | 13.73181 | 19090 ft | 420 kts | 206° |
| 2026-04-25 18:02 | 66.79864 | 13.70368 | 19815 ft | 426 kts | 206° |
| 2026-04-25 18:02 | 66.77122 | 13.67531 | 20467 ft | 431 kts | 206° |
| 2026-04-25 18:02 | 66.74308 | 13.64626 | 21050 ft | 438 kts | 206° |
| 2026-04-25 18:03 | 66.71466 | 13.61861 | 21597 ft | 448 kts | 200° |
| 2026-04-25 18:03 | 66.68341 | 13.60945 | 22073 ft | 463 kts | 177° |
| 2026-04-25 18:03 | 66.65234 | 13.62869 | 22601 ft | 467 kts | 154° |
| 2026-04-25 18:03 | 66.62565 | 13.67273 | 23122 ft | 465 kts | 133° |
| 2026-04-25 18:04 | 66.60354 | 13.73157 | 23652 ft | 466 kts | 126° |
| 2026-04-25 18:04 | 66.58164 | 13.79260 | 24117 ft | 474 kts | 128° |
| 2026-04-25 18:04 | 66.55775 | 13.85001 | 24554 ft | 486 kts | 140° |
| 2026-04-25 18:04 | 66.52782 | 13.88914 | 24943 ft | 499 kts | 161° |
| 2026-04-25 18:05 | 66.50608 | 13.90074 | 25239 ft | 501 kts | 176° |
| 2026-04-25 18:05 | 66.47176 | 13.89568 | 25705 ft | 497 kts | 197° |
| 2026-04-25 18:05 | 66.43945 | 13.86852 | 26275 ft | 490 kts | 207° |
| 2026-04-25 18:05 | 66.40831 | 13.83686 | 26910 ft | 488 kts | 208° |
| 2026-04-25 18:06 | 66.37680 | 13.80602 | 27504 ft | 489 kts | 206° |
| 2026-04-25 18:06 | 66.34480 | 13.77735 | 28066 ft | 490 kts | 204° |
| 2026-04-25 18:06 | 66.31273 | 13.75078 | 28618 ft | 490 kts | 203° |
| 2026-04-25 18:06 | 66.28031 | 13.72539 | 29157 ft | 490 kts | 202° |
| 2026-04-25 18:07 | 66.24820 | 13.70115 | 29681 ft | 490 kts | 202° |
| 2026-04-25 18:07 | 66.21564 | 13.67708 | 30235 ft | 490 kts | 202° |
| 2026-04-25 18:07 | 66.18297 | 13.65316 | 30746 ft | 490 kts | 201° |
| 2026-04-25 18:07 | 66.15030 | 13.62937 | 31247 ft | 490 kts | 202° |
| 2026-04-25 18:08 | 66.11814 | 13.60605 | 31744 ft | 489 kts | 201° |
| 2026-04-25 18:08 | 66.08556 | 13.58252 | 32212 ft | 488 kts | 202° |
| 2026-04-25 18:08 | 66.05333 | 13.55929 | 32609 ft | 490 kts | 201° |
| 2026-04-25 18:08 | 66.02074 | 13.53585 | 32962 ft | 492 kts | 202° |
| 2026-04-25 18:09 | 65.98776 | 13.51216 | 33361 ft | 494 kts | 201° |
| 2026-04-25 18:09 | 65.95512 | 13.48870 | 33692 ft | 496 kts | 202° |
| 2026-04-25 18:09 | 65.92184 | 13.46499 | 33798 ft | 497 kts | 202° |
| 2026-04-25 18:10 | 65.85610 | 13.41825 | 33818 ft | 497 kts | 201° |
| 2026-04-25 18:10 | 65.78953 | 13.37122 | 33844 ft | 498 kts | 201° |
| 2026-04-25 18:11 | 65.72334 | 13.32474 | 33845 ft | 498 kts | 200° |
| 2026-04-25 18:11 | 65.65724 | 13.27851 | 33856 ft | 499 kts | 200° |
| 2026-04-25 18:12 | 65.59061 | 13.23218 | 33852 ft | 500 kts | 201° |
| 2026-04-25 18:12 | 65.52432 | 13.18636 | 33835 ft | 499 kts | 201° |
| 2026-04-25 18:13 | 65.45805 | 13.14075 | 33822 ft | 500 kts | 201° |
| 2026-04-25 18:13 | 65.39130 | 13.09503 | 33801 ft | 501 kts | 201° |
| 2026-04-25 18:14 | 65.29088 | 13.02671 | 33783 ft | 503 kts | 201° |
| 2026-04-25 18:14 | 65.22405 | 12.98155 | 33775 ft | 503 kts | 201° |
| 2026-04-25 18:15 | 65.15704 | 12.93659 | 33797 ft | 503 kts | 201° |
| 2026-04-25 18:15 | 65.08987 | 12.89164 | 33814 ft | 504 kts | 201° |
| 2026-04-25 18:16 | 65.02280 | 12.84701 | 33827 ft | 504 kts | 201° |
| 2026-04-25 18:17 | 64.92188 | 12.78038 | 33833 ft | 505 kts | 201° |
| 2026-04-25 18:17 | 64.85484 | 12.73643 | 33830 ft | 504 kts | 201° |
| 2026-04-25 18:18 | 64.78725 | 12.69215 | 33855 ft | 507 kts | 201° |
| 2026-04-25 18:18 | 64.71948 | 12.64818 | 33857 ft | 507 kts | 201° |
| 2026-04-25 18:19 | 64.65204 | 12.60463 | 33855 ft | 507 kts | 201° |
| 2026-04-25 18:19 | 64.58415 | 12.56096 | 33867 ft | 508 kts | 201° |
| 2026-04-25 18:20 | 64.51637 | 12.51749 | 33874 ft | 509 kts | 201° |
| 2026-04-25 18:20 | 64.44795 | 12.47404 | 33899 ft | 509 kts | 201° |
| 2026-04-25 18:21 | 64.38005 | 12.43108 | 33913 ft | 510 kts | 202° |
| 2026-04-25 18:21 | 64.31194 | 12.38823 | 33907 ft | 510 kts | 201° |
| 2026-04-25 18:22 | 64.24381 | 12.34541 | 33927 ft | 511 kts | 201° |
| 2026-04-25 18:22 | 64.17528 | 12.30269 | 33931 ft | 514 kts | 200° |
| 2026-04-25 18:23 | 64.10632 | 12.26005 | 33924 ft | 515 kts | 200° |
| 2026-04-25 18:23 | 64.03770 | 12.21783 | 33901 ft | 514 kts | 200° |
| 2026-04-25 18:24 | 63.96871 | 12.17545 | 33889 ft | 515 kts | 200° |
| 2026-04-25 18:24 | 63.90020 | 12.13358 | 33885 ft | 516 kts | 200° |
| 2026-04-25 18:25 | 63.83086 | 12.09135 | 33888 ft | 518 kts | 200° |
| 2026-04-25 18:25 | 63.76141 | 12.04946 | 33886 ft | 518 kts | 200° |
| 2026-04-25 18:26 | 63.69256 | 12.00804 | 33885 ft | 518 kts | 200° |
| 2026-04-25 18:26 | 63.62300 | 11.96648 | 33885 ft | 518 kts | 201° |
| 2026-04-25 18:27 | 63.55377 | 11.92529 | 33871 ft | 518 kts | 200° |
| 2026-04-25 18:27 | 63.48443 | 11.88412 | 33854 ft | 518 kts | 200° |
| 2026-04-25 18:28 | 63.41496 | 11.84334 | 33861 ft | 521 kts | 199° |
| 2026-04-25 18:28 | 63.34359 | 11.81452 | 33857 ft | 525 kts | 189° |
| 2026-04-25 18:29 | 63.23426 | 11.81100 | 33848 ft | 529 kts | 179° |
| 2026-04-25 18:30 | 63.08813 | 11.82264 | 33835 ft | 528 kts | 180° |
| 2026-04-25 18:30 | 63.01472 | 11.82765 | 33848 ft | 528 kts | 180° |
| 2026-04-25 18:31 | 62.94152 | 11.83260 | 33850 ft | 528 kts | 180° |
| 2026-04-25 18:31 | 62.86857 | 11.83754 | 33856 ft | 528 kts | 180° |
| 2026-04-25 18:32 | 62.79559 | 11.84246 | 33856 ft | 527 kts | 180° |
| 2026-04-25 18:32 | 62.72235 | 11.84732 | 33849 ft | 526 kts | 180° |
| 2026-04-25 18:33 | 62.64955 | 11.85222 | 33850 ft | 527 kts | 180° |
| 2026-04-25 18:33 | 62.57651 | 11.85692 | 33855 ft | 529 kts | 180° |
| 2026-04-25 18:34 | 62.50297 | 11.86181 | 33858 ft | 528 kts | 180° |
| 2026-04-25 18:34 | 62.42981 | 11.86666 | 33865 ft | 527 kts | 180° |
| 2026-04-25 18:35 | 62.35737 | 11.87128 | 33862 ft | 526 kts | 180° |
| 2026-04-25 18:35 | 62.28429 | 11.87610 | 33867 ft | 526 kts | 181° |
| 2026-04-25 18:36 | 62.21133 | 11.88066 | 33868 ft | 529 kts | 180° |
| 2026-04-25 18:36 | 62.13794 | 11.88558 | 33874 ft | 525 kts | 181° |
| 2026-04-25 18:37 | 62.06517 | 11.89024 | 33881 ft | 526 kts | 181° |
| 2026-04-25 18:37 | 61.99237 | 11.89458 | 33876 ft | 527 kts | 180° |
| 2026-04-25 18:38 | 61.91914 | 11.89942 | 33875 ft | 526 kts | 181° |
| 2026-04-25 18:38 | 61.84612 | 11.90412 | 33868 ft | 527 kts | 181° |
| 2026-04-25 18:39 | 61.77353 | 11.90863 | 33868 ft | 526 kts | 181° |
| 2026-04-25 18:39 | 61.70041 | 11.91309 | 33868 ft | 528 kts | 181° |
| 2026-04-25 18:40 | 61.62745 | 11.91760 | 33845 ft | 528 kts | 180° |
| 2026-04-25 18:40 | 61.55451 | 11.92211 | 33864 ft | 528 kts | 181° |
| 2026-04-25 18:41 | 61.48116 | 11.92685 | 33852 ft | 527 kts | 181° |
| 2026-04-25 18:41 | 61.40810 | 11.93113 | 33866 ft | 527 kts | 181° |
| 2026-04-25 18:42 | 61.35958 | 11.93406 | 33879 ft | 529 kts | 180° |
| 2026-04-25 18:42 | 61.26199 | 11.94000 | 33904 ft | 528 kts | 181° |
| 2026-04-25 18:43 | 61.18881 | 11.94441 | 33900 ft | 527 kts | 181° |
| 2026-04-25 18:43 | 61.11579 | 11.94884 | 33911 ft | 527 kts | 181° |
| 2026-04-25 18:44 | 61.04304 | 11.95325 | 33922 ft | 526 kts | 182° |
| 2026-04-25 18:44 | 60.96996 | 11.95739 | 33920 ft | 529 kts | 180° |
| 2026-04-25 18:45 | 60.89691 | 11.96182 | 33912 ft | 527 kts | 181° |
| 2026-04-25 18:45 | 60.82388 | 11.96618 | 33925 ft | 527 kts | 181° |
| 2026-04-25 18:46 | 60.75130 | 11.97036 | 33927 ft | 527 kts | 181° |
| 2026-04-25 18:46 | 60.67816 | 11.97478 | 33933 ft | 527 kts | 182° |
| 2026-04-25 18:47 | 60.60525 | 11.97894 | 33933 ft | 527 kts | 181° |
| 2026-04-25 18:47 | 60.53225 | 11.98313 | 33934 ft | 528 kts | 181° |
| 2026-04-25 18:48 | 60.45899 | 11.98751 | 33939 ft | 528 kts | 182° |
| 2026-04-25 18:48 | 60.38587 | 11.99164 | 33943 ft | 528 kts | 181° |
| 2026-04-25 18:49 | 60.31269 | 11.99583 | 33954 ft | 528 kts | 181° |
| 2026-04-25 18:49 | 60.23988 | 11.99995 | 33952 ft | 526 kts | 181° |
| 2026-04-25 18:50 | 60.16712 | 12.00419 | 33948 ft | 526 kts | 182° |
| 2026-04-25 18:50 | 60.09396 | 12.00822 | 33938 ft | 528 kts | 181° |
| 2026-04-25 18:51 | 60.03310 | 12.01170 | 33937 ft | 527 kts | 182° |
| 2026-04-25 18:51 | 59.94809 | 12.01652 | 33926 ft | 528 kts | 181° |
| 2026-04-25 18:52 | 59.87496 | 12.02095 | 33915 ft | 527 kts | 180° |
| 2026-04-25 18:52 | 59.80219 | 12.02970 | 33924 ft | 526 kts | 179° |
| 2026-04-25 18:53 | 59.72909 | 12.03941 | 33918 ft | 526 kts | 179° |
| 2026-04-25 18:53 | 59.65652 | 12.04860 | 33929 ft | 527 kts | 179° |
| 2026-04-25 18:54 | 59.54681 | 12.06216 | 33918 ft | 527 kts | 179° |
| 2026-04-25 18:55 | 59.47396 | 12.07113 | 33915 ft | 527 kts | 180° |
| 2026-04-25 18:55 | 59.40141 | 12.08003 | 33922 ft | 528 kts | 180° |
| 2026-04-25 18:56 | 59.32820 | 12.08887 | 33929 ft | 528 kts | 179° |
| 2026-04-25 18:56 | 59.25529 | 12.09767 | 33937 ft | 528 kts | 179° |
| 2026-04-25 18:57 | 59.18214 | 12.10652 | 33951 ft | 528 kts | 180° |
| 2026-04-25 18:57 | 59.10953 | 12.11518 | 33942 ft | 528 kts | 180° |
| 2026-04-25 18:58 | 59.03615 | 12.12388 | 33948 ft | 528 kts | 179° |
| 2026-04-25 18:58 | 58.92674 | 12.13699 | 33931 ft | 527 kts | 180° |
| 2026-04-25 18:59 | 58.78098 | 12.15413 | 33921 ft | 527 kts | 180° |
| 2026-04-25 19:00 | 58.67145 | 12.16682 | 33926 ft | 527 kts | 179° |
| 2026-04-25 19:01 | 58.56196 | 12.17966 | 33921 ft | 526 kts | 179° |
| 2026-04-25 19:01 | 58.48927 | 12.18807 | 33932 ft | 527 kts | 179° |
| 2026-04-25 19:02 | 58.37974 | 12.20063 | 33912 ft | 527 kts | 180° |
| 2026-04-25 19:03 | 58.29489 | 12.21035 | 33926 ft | 527 kts | 180° |
| 2026-04-25 19:03 | 58.19772 | 12.22146 | 33925 ft | 525 kts | 181° |
| 2026-04-25 19:04 | 58.08859 | 12.23365 | 33937 ft | 527 kts | 180° |
| 2026-04-25 19:05 | 57.94268 | 12.25015 | 33920 ft | 527 kts | 180° |
| 2026-04-25 19:06 | 57.86956 | 12.25831 | 33911 ft | 528 kts | 180° |
| 2026-04-25 19:06 | 57.79660 | 12.26653 | 33735 ft | 526 kts | 181° |
| 2026-04-25 19:06 | 57.76021 | 12.27058 | 33368 ft | 524 kts | 180° |
| 2026-04-25 19:07 | 57.68766 | 12.27850 | 32233 ft | 531 kts | 180° |
| 2026-04-25 19:07 | 57.65060 | 12.28254 | 31564 ft | 536 kts | 180° |
| 2026-04-25 19:08 | 57.57616 | 12.29070 | 30194 ft | 543 kts | 180° |
| 2026-04-25 19:08 | 57.53852 | 12.29485 | 29570 ft | 545 kts | 181° |
| 2026-04-25 19:09 | 57.42556 | 12.30721 | 28904 ft | 546 kts | 180° |
| 2026-04-25 19:09 | 57.40026 | 12.31005 | 28903 ft | 543 kts | 180° |
| 2026-04-25 19:09 | 57.31303 | 12.31942 | 27591 ft | 549 kts | 180° |
| 2026-04-25 19:10 | 57.27451 | 12.32359 | 26823 ft | 553 kts | 180° |
| 2026-04-25 19:10 | 57.23676 | 12.32769 | 26309 ft | 551 kts | 180° |
| 2026-04-25 19:10 | 57.19876 | 12.33169 | 25733 ft | 550 kts | 180° |
| 2026-04-25 19:10 | 57.16056 | 12.33587 | 25127 ft | 550 kts | 179° |
| 2026-04-25 19:11 | 57.12259 | 12.34160 | 24544 ft | 550 kts | 175° |
| 2026-04-25 19:11 | 57.08489 | 12.35057 | 24147 ft | 544 kts | 174° |
| 2026-04-25 19:11 | 57.04766 | 12.35992 | 23756 ft | 538 kts | 174° |
| 2026-04-25 19:11 | 57.01081 | 12.36930 | 23355 ft | 532 kts | 174° |
| 2026-04-25 19:12 | 56.97497 | 12.37834 | 22940 ft | 527 kts | 174° |
| 2026-04-25 19:12 | 56.93853 | 12.38745 | 22518 ft | 521 kts | 174° |
| 2026-04-25 19:12 | 56.90294 | 12.39624 | 22070 ft | 516 kts | 175° |
| 2026-04-25 19:12 | 56.86780 | 12.40495 | 21561 ft | 512 kts | 175° |
| 2026-04-25 19:13 | 56.83263 | 12.41361 | 21085 ft | 507 kts | 175° |
| 2026-04-25 19:13 | 56.79806 | 12.42207 | 20665 ft | 501 kts | 175° |
| 2026-04-25 19:13 | 56.76393 | 12.43047 | 20203 ft | 496 kts | 175° |
| 2026-04-25 19:13 | 56.72970 | 12.43881 | 19772 ft | 490 kts | 174° |
| 2026-04-25 19:14 | 56.69619 | 12.44692 | 19280 ft | 486 kts | 175° |
| 2026-04-25 19:14 | 56.68542 | 12.44955 | 19125 ft | 484 kts | 175° |
| 2026-04-25 19:14 | 56.63016 | 12.46307 | 18337 ft | 475 kts | 175° |
| 2026-04-25 19:14 | 56.59774 | 12.47094 | 17906 ft | 469 kts | 175° |
| 2026-04-25 19:15 | 56.56578 | 12.47865 | 17425 ft | 465 kts | 175° |
| 2026-04-25 19:15 | 56.53403 | 12.48639 | 16995 ft | 459 kts | 175° |
| 2026-04-25 19:15 | 56.50274 | 12.49389 | 16551 ft | 454 kts | 175° |
| 2026-04-25 19:15 | 56.47149 | 12.50142 | 16079 ft | 449 kts | 174° |
| 2026-04-25 19:16 | 56.44118 | 12.50873 | 15644 ft | 444 kts | 174° |
| 2026-04-25 19:16 | 56.41038 | 12.51613 | 15202 ft | 439 kts | 174° |
| 2026-04-25 19:16 | 56.38071 | 12.52326 | 14796 ft | 433 kts | 175° |
| 2026-04-25 19:16 | 56.35131 | 12.53027 | 14393 ft | 427 kts | 174° |
| 2026-04-25 19:17 | 56.32212 | 12.53726 | 13934 ft | 422 kts | 175° |
| 2026-04-25 19:17 | 56.29314 | 12.54411 | 13496 ft | 417 kts | 174° |
| 2026-04-25 19:17 | 56.26479 | 12.55087 | 13132 ft | 410 kts | 174° |
| 2026-04-25 19:17 | 56.23693 | 12.55749 | 12783 ft | 403 kts | 174° |
| 2026-04-25 19:18 | 56.20932 | 12.56405 | 12440 ft | 396 kts | 174° |
| 2026-04-25 19:18 | 56.18243 | 12.57010 | 12104 ft | 389 kts | 177° |
| 2026-04-25 19:18 | 56.15619 | 12.56643 | 11766 ft | 374 kts | 198° |
| 2026-04-25 19:18 | 56.13210 | 12.55105 | 11452 ft | 363 kts | 206° |
| 2026-04-25 19:19 | 56.10931 | 12.53465 | 11155 ft | 357 kts | 206° |
| 2026-04-25 19:19 | 56.08635 | 12.51817 | 10937 ft | 348 kts | 206° |
| 2026-04-25 19:19 | 56.06424 | 12.50290 | 10862 ft | 336 kts | 205° |
| 2026-04-25 19:19 | 56.04989 | 12.49331 | 10806 ft | 328 kts | 205° |
| 2026-04-25 19:20 | 56.02216 | 12.47509 | 10700 ft | 313 kts | 205° |
| 2026-04-25 19:20 | 56.00164 | 12.46165 | 10607 ft | 312 kts | 205° |
| 2026-04-25 19:20 | 55.98152 | 12.44856 | 10314 ft | 310 kts | 205° |
| 2026-04-25 19:20 | 55.96121 | 12.43537 | 9851 ft | 308 kts | 205° |
| 2026-04-25 19:21 | 55.94114 | 12.42220 | 9339 ft | 313 kts | 205° |
| 2026-04-25 19:21 | 55.90013 | 12.39447 | 8332 ft | 320 kts | 205° |
| 2026-04-25 19:21 | 55.87918 | 12.38000 | 7937 ft | 319 kts | 205° |
| 2026-04-25 19:22 | 55.85870 | 12.36571 | 7548 ft | 318 kts | 205° |
| 2026-04-25 19:22 | 55.83844 | 12.35157 | 7199 ft | 312 kts | 205° |
| 2026-04-25 19:22 | 55.79948 | 12.32447 | 6692 ft | 296 kts | 205° |
| 2026-04-25 19:23 | 55.78026 | 12.31105 | 6425 ft | 293 kts | 205° |
| 2026-04-25 19:23 | 55.74245 | 12.28460 | 5907 ft | 293 kts | 205° |
| 2026-04-25 19:23 | 55.72360 | 12.27135 | 5645 ft | 291 kts | 205° |
| 2026-04-25 19:24 | 55.70462 | 12.25807 | 5384 ft | 291 kts | 205° |
| 2026-04-25 19:24 | 55.68598 | 12.24493 | 5123 ft | 291 kts | 205° |
| 2026-04-25 19:24 | 55.64821 | 12.21826 | 4895 ft | 292 kts | 205° |
| 2026-04-25 19:25 | 55.61082 | 12.19196 | 4474 ft | 289 kts | 205° |
| 2026-04-25 19:25 | 55.59232 | 12.17893 | 4271 ft | 289 kts | 205° |
| 2026-04-25 19:25 | 55.57349 | 12.16604 | 4079 ft | 288 kts | 201° |
| 2026-04-25 19:26 | 55.55370 | 12.16178 | 4027 ft | 293 kts | 173° |
| 2026-04-25 19:26 | 55.53468 | 12.17308 | 4031 ft | 292 kts | 145° |
| 2026-04-25 19:26 | 55.51852 | 12.19432 | 4043 ft | 291 kts | 137° |
| 2026-04-25 19:26 | 55.50308 | 12.21750 | 4036 ft | 289 kts | 135° |
| 2026-04-25 19:27 | 55.48796 | 12.24067 | 3806 ft | 288 kts | 135° |
| 2026-04-25 19:27 | 55.47798 | 12.25598 | 3636 ft | 288 kts | 135° |
| 2026-04-25 19:27 | 55.45782 | 12.28702 | 3304 ft | 286 kts | 134° |
| 2026-04-25 19:27 | 55.44516 | 12.31300 | 3062 ft | 278 kts | 111° |
| 2026-04-25 19:28 | 55.44069 | 12.34444 | 3035 ft | 263 kts | 83° |
| 2026-04-25 19:28 | 55.44237 | 12.37634 | 3032 ft | 254 kts | 65° |
| 2026-04-25 19:28 | 55.45090 | 12.40160 | 3030 ft | 238 kts | 36° |
| 2026-04-25 19:28 | 55.46453 | 12.41678 | 3040 ft | 232 kts | 23° |
| 2026-04-25 19:29 | 55.47848 | 12.43144 | 3027 ft | 229 kts | 29° |
| 2026-04-25 19:29 | 55.49091 | 12.44768 | 2952 ft | 219 kts | 32° |
| 2026-04-25 19:29 | 55.50240 | 12.46428 | 2582 ft | 213 kts | 34° |
| 2026-04-25 19:29 | 55.51325 | 12.48101 | 2190 ft | 199 kts | 35° |
| 2026-04-25 19:30 | 55.52316 | 12.49654 | 1859 ft | 188 kts | 34° |
| 2026-04-25 19:30 | 55.53253 | 12.51117 | 1626 ft | 171 kts | 34° |
| 2026-04-25 19:30 | 55.54107 | 12.52443 | 1381 ft | 157 kts | 34° |
| 2026-04-25 19:30 | 55.54887 | 12.53649 | 1171 ft | 141 kts | 34° |
| 2026-04-25 19:31 | 55.55628 | 12.54790 | 1011 ft | 145 kts | 34° |
| 2026-04-25 19:31 | 55.56383 | 12.55957 | 820 ft | 146 kts | 34° |
| 2026-04-25 19:31 | 55.57150 | 12.57146 | 611 ft | 146 kts | 35° |
| 2026-04-25 19:31 | 55.57835 | 12.58207 | 432 ft | 146 kts | 36° |
| 2026-04-25 19:32 | 55.58126 | 12.58661 | 355 ft | 146 kts | 36° |
| 2026-04-25 19:32 | 55.58890 | 12.59838 | 136 ft | 146 kts | 36° |
| 2026-04-25 19:32 | 55.59651 | 12.61019 | 44 ft | 139 kts | 36° |
| 2026-04-25 19:32 | 55.60109 | 12.61721 | 34 ft | 117 kts | 38° |
| 2026-04-25 19:33 | 55.60709 | 12.62645 | 30 ft | 69 kts | 40° |
| 2026-04-25 19:33 | 55.61074 | 12.63222 | 27 ft | 75 kts | 38° |
| 2026-04-25 19:33 | 55.61473 | 12.63846 | 32 ft | 70 kts | 42° |
| 2026-04-25 19:33 | 55.61719 | 12.64092 | 33 ft | 17 kts | 343° |
| 2026-04-25 19:34 | 55.61791 | 12.64078 | 33 ft | 8 kts | 356° |
| 2026-04-25 19:34 | 55.61832 | 12.64074 | 33 ft | 0 kts | 356° |
| 2026-04-25 19:34 | 55.61859 | 12.64075 | 33 ft | 11 kts | 5° |
| 2026-04-25 19:34 | 55.61965 | 12.64145 | 35 ft | 17 kts | 23° |
| 2026-04-25 19:35 | 55.62072 | 12.64233 | 35 ft | 17 kts | 25° |
| 2026-04-25 19:35 | 55.62176 | 12.64325 | 34 ft | 17 kts | 26° |
| 2026-04-25 19:35 | 55.62268 | 12.64475 | 34 ft | 15 kts | 62° |
| 2026-04-25 19:35 | 55.62314 | 12.64655 | 35 ft | 15 kts | 66° |
| 2026-04-25 19:36 | 55.62348 | 12.64815 | 35 ft | 11 kts | 84° |
| 2026-04-25 19:36 | 55.62319 | 12.64961 | 35 ft | 14 kts | 120° |
| 2026-04-25 19:36 | 55.62277 | 12.65084 | 35 ft | 5 kts | 113° |
| 2026-04-25 19:36 | 55.62283 | 12.65167 | 35 ft | 8 kts | 58° |
| 2026-04-25 19:37 | 55.62331 | 12.65204 | 35 ft | 8 kts | 358° |
| 2026-04-25 19:37 | 55.62404 | 12.65199 | 35 ft | 12 kts | 358° |
| 2026-04-25 19:37 | 55.62502 | 12.65188 | 35 ft | 15 kts | 356° |
| 2026-04-25 19:37 | 55.62593 | 12.65179 | 35 ft | 12 kts | 358° |
| 2026-04-25 19:38 | 55.62609 | 12.65178 | 35 ft | 0 kts | 358° |
| 2026-04-25 19:38 | 55.62620 | 12.65175 | 35 ft | 3 kts | 341° |
| 2026-04-25 19:38 | 55.62635 | 12.65140 | 35 ft | 4 kts | 288° |
| 2026-04-25 19:38 | 55.62638 | 12.65106 | 35 ft | 4 kts | 280° |
| 2026-04-25 19:39 | 55.62642 | 12.65073 | 35 ft | 0 kts | 281° |
| 2026-04-25 19:39 | 55.62643 | 12.65062 | 35 ft | 0 kts | 281° |